Time;durP1;ratioP1;P1;durP2;ratioP2;P2;SDS_P1;SDS_P2;PMS_P1;PMS_P2;Temp;Humidity;BMP_temperature;BMP_pressure;BME280_temperature;BME280_humidity;BME280_pressure;Samples;Min_cycle;Max_cycle;Signal;HPM_P1;HPM_P2
2023/05/05 00:00:54;;;;;;;4.18;2.22;;;;;;;14.67;59.99;100185.25;4298615;33;20147;-87
2023/05/05 00:03:19;;;;;;;6.35;2.53;;;;;;;14.62;59.99;100184.56;4308944;33;20107;-87
2023/05/05 00:05:48;;;;;;;5.10;2.47;;;;;;;14.51;59.99;100188.56;4320546;33;20134;-88
2023/05/05 00:08:14;;;;;;;4.85;2.50;;;;;;;14.54;59.99;100176.19;4320480;33;20095;-87
2023/05/05 00:10:40;;;;;;;6.32;3.10;;;;;;;14.48;59.98;100186.06;4333781;33;20093;-87
2023/05/05 00:13:05;;;;;;;5.05;2.12;;;;;;;14.55;60.00;100177.88;4332312;33;20468;-86
2023/05/05 00:15:34;;;;;;;4.12;2.08;;;;;;;14.55;60.00;100183.13;4319875;33;30633;-87
2023/05/05 00:17:59;;;;;;;3.97;2.47;;;;;;;14.54;59.99;100185.81;4333906;33;20099;-86
2023/05/05 00:20:25;;;;;;;9.45;2.37;;;;;;;14.40;59.98;100179.31;4332305;33;20127;-87
2023/05/05 00:22:51;;;;;;;5.12;3.03;;;;;;;14.32;59.97;100184.03;4332653;33;20132;-87
2023/05/05 00:25:16;;;;;;;4.97;2.78;;;;;;;14.24;59.97;100180.88;4332661;33;20158;-87
2023/05/05 00:27:42;;;;;;;4.93;2.55;;;;;;;14.21;59.97;100175.78;4320133;33;20461;-87
2023/05/05 00:30:10;;;;;;;5.82;2.78;;;;;;;14.17;59.96;100173.31;4333347;33;20788;-86
2023/05/05 00:32:36;;;;;;;5.57;2.67;;;;;;;14.10;59.97;100170.94;4320252;33;20142;-86
2023/05/05 00:35:01;;;;;;;6.22;2.60;;;;;;;14.01;59.96;100171.31;4319291;33;20143;-87
2023/05/05 00:37:27;;;;;;;7.68;3.20;;;;;;;14.01;59.96;100171.31;4307817;33;20155;-86
2023/05/05 00:39:52;;;;;;;4.07;2.33;;;;;;;14.06;59.96;100169.37;4319727;33;20489;-86
2023/05/05 00:42:17;;;;;;;4.57;2.50;;;;;;;13.98;59.96;100179.31;4320101;33;20147;-87
2023/05/05 00:44:43;;;;;;;4.68;2.95;;;;;;;13.95;59.96;100176.78;4319956;33;20114;-87
2023/05/05 00:47:12;;;;;;;4.05;2.40;;;;;;;13.94;59.95;100176.84;4333325;33;20155;-87
2023/05/05 00:49:40;;;;;;;4.15;2.60;;;;;;;13.87;59.94;100175.38;4319679;33;20112;-87
2023/05/05 00:52:06;;;;;;;8.05;2.95;;;;;;;13.87;59.94;100173.63;4305374;33;20103;-86
2023/05/05 00:54:33;;;;;;;10.70;2.72;;;;;;;13.87;59.94;100172.75;4319022;33;20171;-86
2023/05/05 00:56:58;;;;;;;5.60;2.67;;;;;;;13.91;59.95;100171.72;4305465;33;20119;-87
2023/05/05 00:59:24;;;;;;;6.50;2.90;;;;;;;13.91;59.96;100169.97;4318584;33;20120;-86
2023/05/05 01:01:49;;;;;;;4.45;2.33;;;;;;;13.67;59.94;100165.66;4305155;33;20426;-87
2023/05/05 01:04:15;;;;;;;3.72;2.50;;;;;;;13.62;59.93;100167.62;4305683;33;20138;-87
2023/05/05 01:07:09;;;;;;;10.85;2.80;;;;;;;13.59;59.94;100165.13;4305676;33;20104;-86
2023/05/05 01:09:48;;;;;;;5.37;2.70;;;;;;;13.58;59.94;100164.28;4306819;33;20112;-86
2023/05/05 01:12:16;;;;;;;4.30;2.60;;;;;;;13.55;59.93;100161.78;4306274;33;20183;-86
2023/05/05 01:14:51;;;;;;;4.90;2.72;;;;;;;13.49;59.93;100162.87;4305323;33;20141;-87
2023/05/05 01:17:23;;;;;;;12.32;4.03;;;;;;;13.48;59.93;100163.75;4305825;33;20123;-87
2023/05/05 01:20:15;;;;;;;5.53;2.95;;;;;;;13.40;59.92;100160.56;4305756;33;20480;-87
2023/05/05 01:22:44;;;;;;;4.25;2.53;;;;;;;13.35;59.92;100159.91;4305083;33;20555;-87
2023/05/05 01:25:28;;;;;;;5.20;2.55;;;;;;;13.45;59.93;100156.00;4305425;33;20091;-87
2023/05/05 01:28:10;;;;;;;4.75;2.67;;;;;;;13.40;59.92;100154.50;4318296;33;20114;-86
2023/05/05 01:30:47;;;;;;;6.68;3.00;;;;;;;13.41;59.92;100157.03;4305213;33;20137;-86
2023/05/05 01:33:14;;;;;;;5.90;2.83;;;;;;;13.29;59.92;100154.03;4318249;33;20190;-87
2023/05/05 01:35:44;;;;;;;6.68;3.25;;;;;;;13.38;59.93;100165.00;4304961;33;20100;-86
2023/05/05 01:38:18;;;;;;;3.25;2.40;;;;;;;13.30;59.92;100156.59;4305226;33;20126;-87
2023/05/05 01:41:02;;;;;;;4.70;2.53;;;;;;;13.31;59.92;100154.84;4293456;33;20139;-88
2023/05/05 01:43:29;;;;;;;4.75;2.33;;;;;;;13.29;59.92;100156.66;4317393;33;20116;-87
2023/05/05 01:45:55;;;;;;;6.43;3.30;;;;;;;13.30;59.92;100160.97;4305034;33;20119;-86
2023/05/05 01:48:20;;;;;;;5.68;2.53;;;;;;;13.22;59.91;100166.47;4304514;33;20395;-87
2023/05/05 01:50:45;;;;;;;5.55;2.65;;;;;;;13.12;59.92;100165.06;4310323;33;20104;-87
2023/05/05 01:53:11;;;;;;;5.78;3.22;;;;;;;13.06;59.91;100163.53;4321458;33;20151;-87
2023/05/05 01:55:36;;;;;;;5.95;3.20;;;;;;;12.99;59.90;100164.62;4321353;33;20104;-87
2023/05/05 01:58:03;;;;;;;5.37;2.90;;;;;;;12.94;59.90;100157.88;4320880;33;20172;-87
2023/05/05 02:00:29;;;;;;;5.15;3.00;;;;;;;12.90;59.90;100163.22;4321079;33;20163;-88
2023/05/05 02:02:58;;;;;;;6.28;2.70;;;;;;;12.79;59.89;100159.28;4320640;33;24462;-86
2023/05/05 02:05:25;;;;;;;4.47;2.85;;;;;;;12.79;59.89;100156.66;4321542;33;20159;-85
2023/05/05 02:07:51;;;;;;;5.30;2.55;;;;;;;12.82;59.90;100152.19;4333385;33;20080;-86
2023/05/05 02:10:16;;;;;;;8.38;2.87;;;;;;;12.81;59.90;100150.47;4334592;33;20103;-86
2023/05/05 02:12:41;;;;;;;4.15;2.40;;;;;;;12.79;59.89;100151.44;4334220;33;25556;-85
2023/05/05 02:15:07;;;;;;;7.28;3.25;;;;;;;12.52;59.88;100155.81;4320727;33;23244;-86
2023/05/05 02:17:32;;;;;;;8.63;3.42;;;;;;;12.51;59.88;100154.97;4321049;33;20109;-86
2023/05/05 02:19:58;;;;;;;4.68;2.92;;;;;;;12.40;59.87;100159.72;4320685;33;20421;-85
2023/05/05 02:22:23;;;;;;;4.85;2.80;;;;;;;12.33;59.87;100165.19;4320969;33;20167;-87
2023/05/05 02:24:49;;;;;;;8.10;2.90;;;;;;;12.40;59.87;100157.09;4308378;33;20283;-87
2023/05/05 02:27:15;;;;;;;6.25;3.35;;;;;;;12.41;59.87;100158.78;4321061;33;20131;-86
2023/05/05 02:29:51;;;;;;;5.55;2.95;;;;;;;12.28;59.86;100157.47;4308979;33;20197;-86
2023/05/05 02:32:19;;;;;;;4.37;2.50;;;;;;;12.25;59.86;100155.81;4333371;33;20108;-86
2023/05/05 02:34:45;;;;;;;5.72;2.90;;;;;;;12.15;59.86;100153.56;4321110;33;20091;-86
2023/05/05 02:37:11;;;;;;;5.55;2.97;;;;;;;12.16;59.86;100153.53;4321185;33;20451;-85
2023/05/05 02:39:42;;;;;;;10.23;3.10;;;;;;;12.15;59.86;100151.81;4321068;33;20103;-86
2023/05/05 02:42:08;;;;;;;4.82;2.83;;;;;;;12.05;59.85;100159.97;4321147;33;20123;-86
2023/05/05 02:44:33;;;;;;;4.62;3.12;;;;;;;12.01;59.85;100153.13;4321086;33;20118;-87
2023/05/05 02:46:59;;;;;;;6.50;2.75;;;;;;;12.03;59.85;100159.16;4334390;33;20126;-86
2023/05/05 02:49:24;;;;;;;4.87;2.70;;;;;;;11.95;59.85;100156.81;4334356;33;20134;-87
2023/05/05 02:51:50;;;;;;;5.68;3.17;;;;;;;11.89;59.84;100154.41;4320908;33;20147;-86
2023/05/05 02:54:15;;;;;;;5.00;2.70;;;;;;;11.80;59.83;100160.72;4321004;33;20134;-87
2023/05/05 02:56:48;;;;;;;5.75;3.40;;;;;;;11.79;59.84;100164.25;4321019;33;20126;-86
2023/05/05 02:59:18;;;;;;;4.62;3.15;;;;;;;11.78;59.84;100159.91;4320920;33;20464;-87
2023/05/05 03:01:46;;;;;;;4.68;2.75;;;;;;;11.81;59.83;100162.44;4320850;33;20166;-86
2023/05/05 03:04:14;;;;;;;10.02;2.65;;;;;;;11.56;59.83;100161.44;4321070;33;20166;-87
2023/05/05 03:06:41;;;;;;;4.25;2.62;;;;;;;11.45;59.81;100163.50;4320773;33;20174;-87
2023/05/05 03:09:14;;;;;;;7.18;2.85;;;;;;;11.41;59.82;100164.50;4320673;33;20104;-86
2023/05/05 03:12:05;;;;;;;6.22;3.22;;;;;;;11.30;59.80;100170.00;4308800;33;20145;-87
2023/05/05 03:14:35;;;;;;;3.67;2.60;;;;;;;11.35;59.81;100168.09;4322888;33;20203;-87
2023/05/05 03:17:00;;;;;;;5.32;2.87;;;;;;;11.42;59.81;100164.44;4320901;33;20095;-87
2023/05/05 03:19:26;;;;;;;5.18;2.90;;;;;;;11.30;59.80;100159.56;4320822;33;20108;-87
2023/05/05 03:21:51;;;;;;;6.25;2.75;;;;;;;11.42;59.82;100155.78;4321069;33;20103;-88
2023/05/05 03:24:17;;;;;;;4.62;2.45;;;;;;;11.39;59.82;100161.94;4320765;33;23954;-88
2023/05/05 03:26:43;;;;;;;4.25;2.60;;;;;;;11.10;59.80;100162.72;4333012;33;20476;-86
2023/05/05 03:29:09;;;;;;;4.93;2.70;;;;;;;11.03;59.79;100153.38;4320865;33;20107;-86
2023/05/05 03:31:34;;;;;;;4.75;2.72;;;;;;;11.14;59.81;100159.16;4320677;33;20104;-86
2023/05/05 03:34:00;;;;;;;5.95;2.80;;;;;;;11.17;59.80;100161.69;4333748;33;24850;-86
2023/05/05 03:36:26;;;;;;;6.00;3.20;;;;;;;11.02;59.79;100165.56;4333627;33;27149;-86
2023/05/05 03:38:51;;;;;;;7.75;3.00;;;;;;;11.05;59.79;100173.28;4320892;33;20234;-86
2023/05/05 03:41:17;;;;;;;10.30;3.12;;;;;;;10.93;59.79;100168.41;4320670;33;20497;-87
2023/05/05 03:43:42;;;;;;;5.10;2.90;;;;;;;11.11;59.80;100163.59;4320185;33;22377;-86
2023/05/05 03:46:09;;;;;;;6.10;3.05;;;;;;;11.17;59.80;100166.03;4332809;33;20493;-87
2023/05/05 03:48:34;;;;;;;5.10;2.95;;;;;;;11.17;59.80;100164.28;4334069;33;20158;-87
2023/05/05 03:50:59;;;;;;;5.07;2.85;;;;;;;11.33;59.81;100164.69;4333917;33;20096;-87
2023/05/05 03:53:25;;;;;;;7.72;3.22;;;;;;;11.26;59.81;100168.38;4320550;33;20410;-87
2023/05/05 03:55:51;;;;;;;3.97;2.45;;;;;;;11.22;59.81;100178.03;4334197;33;20130;-88
2023/05/05 03:58:16;;;;;;;6.65;2.78;;;;;;;11.27;59.81;100176.16;4332999;33;20155;-85
2023/05/05 04:00:42;;;;;;;7.43;3.10;;;;;;;11.46;59.82;100178.25;4320835;33;20103;-86
2023/05/05 04:03:07;;;;;;;6.68;3.25;;;;;;;11.47;59.82;100174.75;4320758;33;20087;-87
2023/05/05 04:05:33;;;;;;;6.50;3.33;;;;;;;11.68;59.83;100176.72;4320810;33;29717;-87
2023/05/05 04:07:58;;;;;;;4.37;2.62;;;;;;;11.53;59.83;100180.63;4321176;33;20166;-88
2023/05/05 04:10:24;;;;;;;7.47;3.15;;;;;;;11.63;59.83;100184.69;4332640;33;20139;-88
2023/05/05 04:12:49;;;;;;;6.18;2.83;;;;;;;11.77;59.84;100179.03;4333496;33;22647;-87
2023/05/05 04:15:15;;;;;;;3.75;2.67;;;;;;;11.81;59.83;100179.84;4332181;33;20161;-86
2023/05/05 04:17:40;;;;;;;5.80;2.72;;;;;;;11.85;59.84;100173.66;4332672;33;20095;-87
2023/05/05 04:20:06;;;;;;;5.53;2.92;;;;;;;12.04;59.84;100173.91;4319451;33;35926;-87
2023/05/05 04:22:31;;;;;;;4.43;2.60;;;;;;;12.33;59.86;100173.88;4320397;33;20383;-87
2023/05/05 04:24:57;;;;;;;5.10;3.17;;;;;;;12.19;59.85;100176.91;4319868;33;28822;-87
2023/05/05 04:27:24;;;;;;;3.95;2.53;;;;;;;12.22;59.87;100170.72;4333791;33;20116;-86
2023/05/05 04:29:50;;;;;;;5.87;2.58;;;;;;;12.35;59.86;100176.44;4332533;33;20111;-87
2023/05/05 04:32:16;;;;;;;6.53;2.72;;;;;;;12.59;59.88;100175.63;4332607;33;20083;-87
2023/05/05 04:34:41;;;;;;;5.15;3.10;;;;;;;12.62;59.88;100174.66;4320196;33;20409;-86
2023/05/05 04:37:07;;;;;;;5.60;2.75;;;;;;;13.00;59.90;100174.19;4333669;33;20134;-87
2023/05/05 04:39:32;;;;;;;5.37;2.70;;;;;;;13.00;59.90;100183.78;4333865;33;20425;-87
2023/05/05 04:41:58;;;;;;;4.93;2.85;;;;;;;12.95;59.90;100173.50;4332180;33;20168;-88
2023/05/05 04:44:23;;;;;;;7.25;2.75;;;;;;;13.05;59.91;100176.66;4332427;33;20136;-87
2023/05/05 04:46:48;;;;;;;5.93;2.97;;;;;;;13.08;59.90;100177.41;4320219;33;20104;-87
2023/05/05 04:49:14;;;;;;;5.57;3.05;;;;;;;13.30;59.92;100181.91;4332256;33;20139;-88
2023/05/05 04:51:41;;;;;;;4.68;2.78;;;;;;;13.45;59.93;100184.78;4333424;33;20176;-86
2023/05/05 04:54:06;;;;;;;4.18;2.55;;;;;;;13.54;59.93;100195.84;4320250;33;20095;-87
2023/05/05 04:56:31;;;;;;;4.97;3.10;;;;;;;13.71;59.94;100185.56;4320090;33;20142;-87
2023/05/05 04:58:57;;;;;;;5.25;2.75;;;;;;;13.80;59.95;100193.09;4331921;33;20512;-87
2023/05/05 05:01:22;;;;;;;5.10;3.22;;;;;;;13.82;59.95;100181.66;4333664;33;20068;-88
2023/05/05 05:03:48;;;;;;;5.00;2.87;;;;;;;14.03;59.96;100187.81;4333366;33;20465;-88
2023/05/05 05:06:13;;;;;;;5.82;3.08;;;;;;;14.09;59.96;100182.34;4331965;33;20129;-87
2023/05/05 05:08:39;;;;;;;5.28;3.10;;;;;;;14.28;59.97;100182.47;4308212;33;20151;-87
2023/05/05 05:11:04;;;;;;;9.10;2.85;;;;;;;14.30;59.97;100188.50;4331155;33;31729;-87
2023/05/05 05:13:29;;;;;;;6.22;3.05;;;;;;;14.53;59.98;100181.50;4333288;33;20119;-87
2023/05/05 05:15:55;;;;;;;6.57;3.37;;;;;;;14.53;59.98;100191.97;4332870;33;20495;-87
2023/05/05 05:18:20;;;;;;;5.53;3.22;;;;;;;14.70;59.99;100194.75;4332938;33;20107;-87
2023/05/05 05:20:46;;;;;;;5.53;3.08;;;;;;;14.86;60.00;100198.41;4333324;33;20132;-87
2023/05/05 05:23:11;;;;;;;5.47;3.75;;;;;;;15.09;60.01;100188.72;4319404;33;28188;-87
2023/05/05 05:25:36;;;;;;;10.25;4.03;;;;;;;15.19;60.02;100190.88;4319361;33;31105;-88
2023/05/05 05:28:02;;;;;;;5.72;3.30;;;;;;;15.50;60.04;100182.50;4321620;33;20206;-88
2023/05/05 05:30:27;;;;;;;4.12;2.85;;;;;;;15.71;60.05;100182.47;4321786;33;20476;-87
2023/05/05 05:32:53;;;;;;;5.55;3.33;;;;;;;15.35;60.03;100197.13;4309513;33;20448;-87
2023/05/05 05:35:18;;;;;;;5.45;2.67;;;;;;;15.92;60.06;100191.97;4335023;33;20147;-87
2023/05/05 05:37:44;;;;;;;6.15;3.17;;;;;;;16.03;60.06;100196.69;4333160;33;29234;-88
2023/05/05 05:40:10;;;;;;;4.62;2.95;;;;;;;16.30;60.07;100197.16;4334978;33;20092;-88
2023/05/05 05:42:35;;;;;;;5.15;3.37;;;;;;;16.51;60.09;100196.09;4335001;33;20114;-88
2023/05/05 05:45:01;;;;;;;5.28;3.22;;;;;;;16.79;60.11;100191.19;4333713;33;20155;-90
2023/05/05 05:47:26;;;;;;;7.87;3.75;;;;;;;17.04;60.12;100189.97;4321497;33;20134;-88
2023/05/05 05:49:52;;;;;;;4.03;2.53;;;;;;;17.02;60.12;100192.66;4334943;33;20411;-88
2023/05/05 05:52:17;;;;;;;5.40;2.47;;;;;;;17.11;60.12;100191.34;4320947;33;24752;-88
2023/05/05 05:54:43;;;;;;;4.87;2.97;;;;;;;17.20;60.12;100201.38;4334405;33;23778;-88
2023/05/05 05:57:08;;;;;;;4.35;2.65;;;;;;;17.42;60.14;100201.12;4321418;33;20513;-88
2023/05/05 05:59:33;;;;;;;8.10;3.05;;;;;;;17.55;60.15;100196.91;4334857;33;20118;-88
2023/05/05 06:01:59;;;;;;;3.60;2.40;;;;;;;17.58;60.15;100188.84;4333272;33;20373;-88
2023/05/05 06:04:24;;;;;;;4.97;2.35;;;;;;;17.50;60.14;100194.50;4309259;33;20449;-88
2023/05/05 06:06:50;;;;;;;6.10;2.30;;;;;;;17.49;60.15;100186.69;4333521;33;20512;-88
2023/05/05 06:09:15;;;;;;;5.07;2.92;;;;;;;17.96;60.16;100191.19;4309187;33;20142;-88
2023/05/05 06:11:41;;;;;;;7.28;3.47;;;;;;;17.99;60.16;100185.78;4333449;33;20138;-87
2023/05/05 06:14:06;;;;;;;5.72;2.92;;;;;;;18.14;60.18;100184.06;4334454;33;20103;-87
2023/05/05 06:16:32;;;;;;;4.30;2.53;;;;;;;18.23;60.19;100183.56;4333633;33;20178;-88
2023/05/05 06:18:57;;;;;;;7.70;2.80;;;;;;;18.31;60.19;100187.44;4321316;33;20092;-87
2023/05/05 06:21:22;;;;;;;5.62;3.03;;;;;;;18.51;60.20;100183.66;4334711;33;20118;-88
2023/05/05 06:23:48;;;;;;;4.90;2.92;;;;;;;18.55;60.20;100181.69;4321378;33;20155;-87
2023/05/05 06:26:13;;;;;;;6.07;3.00;;;;;;;18.76;60.21;100182.28;4334493;33;20147;-87
2023/05/05 06:28:40;;;;;;;9.23;2.97;;;;;;;18.77;60.21;100189.25;4320419;33;34199;-88
2023/05/05 06:31:05;;;;;;;6.37;3.53;;;;;;;18.89;60.22;100183.22;4309134;33;20107;-88
2023/05/05 06:33:30;;;;;;;6.22;3.22;;;;;;;18.81;60.21;100181.06;4334140;33;26750;-87
2023/05/05 06:35:56;;;;;;;7.00;3.15;;;;;;;18.86;60.22;100170.22;4320617;33;27427;-87
2023/05/05 06:38:21;;;;;;;5.82;3.15;;;;;;;19.15;60.23;100168.47;4333936;33;21345;-87
2023/05/05 06:40:48;;;;;;;8.32;3.37;;;;;;;19.27;60.24;100171.22;4326109;33;20119;-88
2023/05/05 06:43:13;;;;;;;5.32;3.53;;;;;;;19.33;60.24;100167.34;4322195;33;20134;-88
2023/05/05 06:45:39;;;;;;;6.57;3.53;;;;;;;19.45;60.25;100168.41;4321271;33;20455;-87
2023/05/05 06:48:04;;;;;;;10.25;3.70;;;;;;;19.67;60.26;100165.31;4334354;33;20135;-87
2023/05/05 06:50:30;;;;;;;5.80;3.03;;;;;;;19.75;60.26;100166.50;4333921;33;20118;-87
2023/05/05 06:52:55;;;;;;;6.07;3.53;;;;;;;19.93;60.28;100164.50;4334611;33;30519;-87
2023/05/05 06:55:22;;;;;;;6.57;2.90;;;;;;;20.10;60.29;100166.03;4333172;33;20133;-87
2023/05/05 06:57:47;;;;;;;5.95;3.17;;;;;;;20.02;60.28;100165.69;4320945;33;20522;-87
2023/05/05 07:00:13;;;;;;;5.32;2.67;;;;;;;19.96;60.28;100172.22;4320930;33;20147;-88
2023/05/05 07:02:39;;;;;;;6.80;3.20;;;;;;;20.08;60.29;100166.13;4321192;33;20146;-88
2023/05/05 07:05:05;;;;;;;9.18;3.50;;;;;;;20.21;60.29;100166.19;4321034;33;20124;-88
2023/05/05 07:07:31;;;;;;;8.02;2.80;;;;;;;20.34;60.30;100163.59;4321065;33;20100;-88
2023/05/05 07:09:56;;;;;;;8.85;3.30;;;;;;;20.42;60.30;100164.81;4334396;33;20103;-87
2023/05/05 07:12:22;;;;;;;5.05;2.65;;;;;;;20.57;60.31;100165.59;4321090;33;20127;-87
2023/05/05 07:14:47;;;;;;;5.57;2.70;;;;;;;20.61;60.31;100169.75;4320711;33;20115;-87
2023/05/05 07:17:13;;;;;;;4.70;2.62;;;;;;;20.69;60.31;100162.13;4320903;33;20107;-88
2023/05/05 07:19:38;;;;;;;6.43;2.67;;;;;;;20.88;60.33;100164.38;4320861;33;20135;-88
2023/05/05 07:22:03;;;;;;;5.15;2.90;;;;;;;20.98;60.33;100165.44;4332421;33;28497;-88
2023/05/05 07:24:29;;;;;;;4.25;2.95;;;;;;;21.10;60.34;100161.97;4320526;33;20525;-88
2023/05/05 07:26:54;;;;;;;5.45;3.20;;;;;;;21.24;60.34;100157.53;4320768;33;20135;-87
2023/05/05 07:29:19;;;;;;;6.03;2.87;;;;;;;21.22;60.34;100167.34;4332927;33;20144;-88
2023/05/05 07:31:45;;;;;;;5.15;2.60;;;;;;;21.42;60.36;100164.19;4320844;33;20151;-88
2023/05/05 07:34:10;;;;;;;7.00;3.28;;;;;;;21.38;60.36;100168.03;4320746;33;20156;-87
2023/05/05 07:36:36;;;;;;;6.72;3.28;;;;;;;21.45;60.36;100156.88;4332909;33;20438;-87
2023/05/05 07:39:01;;;;;;;7.50;3.53;;;;;;;21.31;60.35;100164.97;4334257;33;20115;-88
2023/05/05 07:41:27;;;;;;;7.05;3.50;;;;;;;21.33;60.35;100167.50;4332984;33;20123;-88
2023/05/05 07:43:52;;;;;;;9.70;3.25;;;;;;;21.36;60.35;100167.28;4333467;33;32964;-88
2023/05/05 07:46:17;;;;;;;5.28;2.95;;;;;;;21.46;60.36;100160.38;4332815;33;20150;-88
2023/05/05 07:48:43;;;;;;;8.10;3.65;;;;;;;21.75;60.37;100163.59;4332126;33;20196;-88
2023/05/05 07:51:08;;;;;;;5.90;3.08;;;;;;;21.69;60.37;100162.22;4332950;33;20196;-88
2023/05/05 07:53:34;;;;;;;6.35;3.25;;;;;;;21.55;60.37;100167.69;4308275;33;20111;-87
2023/05/05 07:55:59;;;;;;;6.82;3.50;;;;;;;21.57;60.37;100165.78;4320519;33;20400;-88
2023/05/05 07:58:24;;;;;;;6.53;3.28;;;;;;;21.66;60.37;100166.91;4333013;33;20146;-88
2023/05/05 08:00:50;;;;;;;11.88;3.50;;;;;;;21.60;60.36;100162.06;4332764;33;20220;-87
2023/05/05 08:03:18;;;;;;;8.13;3.17;;;;;;;21.60;60.36;100164.72;4332876;33;20154;-89
2023/05/05 08:05:43;;;;;;;4.80;3.28;;;;;;;21.88;60.39;100164.41;4332945;33;20524;-87
2023/05/05 08:08:09;;;;;;;7.28;3.58;;;;;;;21.81;60.38;100163.19;4333805;33;20087;-88
2023/05/05 08:10:34;;;;;;;6.25;3.75;;;;;;;21.92;60.37;100165.03;4332832;33;20187;-87
2023/05/05 08:13:00;;;;;;;6.00;3.80;;;;;;;21.86;60.39;100171.63;4334398;33;20144;-88
2023/05/05 08:15:25;;;;;;;6.70;3.67;;;;;;;21.95;60.39;100165.66;4335347;33;20390;-88
2023/05/05 08:17:51;;;;;;;8.30;4.00;;;;;;;21.97;60.39;100160.25;4332741;33;20472;-87
2023/05/05 08:20:17;;;;;;;6.62;3.55;;;;;;;22.01;60.38;100164.38;4320785;33;20133;-88
2023/05/05 08:22:42;;;;;;;5.12;3.20;;;;;;;22.29;60.41;100160.59;4321985;33;20205;-87
2023/05/05 08:25:09;;;;;;;6.40;3.62;;;;;;;22.36;60.41;100160.00;4334017;33;20575;-88
2023/05/05 08:27:36;;;;;;;8.20;3.87;;;;;;;22.52;60.42;100170.31;4332572;33;20083;-87
2023/05/05 08:30:02;;;;;;;6.87;3.95;;;;;;;22.73;60.43;100159.91;4332579;33;20108;-87
2023/05/05 08:32:27;;;;;;;5.65;3.90;;;;;;;22.82;60.43;100161.03;4333948;33;20158;-87
2023/05/05 08:34:52;;;;;;;5.95;3.85;;;;;;;22.92;60.44;100164.66;4333371;33;23073;-87
2023/05/05 08:37:18;;;;;;;5.60;3.95;;;;;;;23.11;60.45;100156.97;4333473;33;21071;-87
2023/05/05 08:39:43;;;;;;;6.12;3.90;;;;;;;23.15;60.45;100158.44;4333691;33;20541;-87
2023/05/05 08:42:09;;;;;;;5.37;3.33;;;;;;;23.40;60.46;100157.34;4333801;33;20111;-87
2023/05/05 08:44:34;;;;;;;12.88;4.37;;;;;;;23.64;60.47;100154.59;4332404;33;20095;-87
2023/05/05 08:47:00;;;;;;;8.32;3.70;;;;;;;23.83;60.49;100146.00;4320230;33;20072;-87
2023/05/05 08:49:25;;;;;;;5.82;3.47;;;;;;;23.80;60.48;100152.41;4319369;33;35217;-88
2023/05/05 08:51:50;;;;;;;5.87;3.35;;;;;;;23.76;60.48;100150.97;4333095;33;22442;-87
2023/05/05 08:54:19;;;;;;;4.43;3.45;;;;;;;23.91;60.49;100150.72;4320270;33;20230;-88
2023/05/05 08:56:45;;;;;;;8.40;3.35;;;;;;;24.18;60.50;100143.97;4332399;33;20142;-87
2023/05/05 08:59:11;;;;;;;5.65;4.03;;;;;;;23.99;60.50;100148.28;4319991;33;20116;-88
2023/05/05 09:01:36;;;;;;;5.75;3.72;;;;;;;24.15;60.50;100143.41;4319788;33;20120;-87
2023/05/05 09:04:02;;;;;;;7.15;4.20;;;;;;;24.01;60.50;100144.50;4331580;33;29710;-87
2023/05/05 09:06:28;;;;;;;8.23;3.80;;;;;;;24.19;60.50;100143.00;4320122;33;20483;-87
2023/05/05 09:08:54;;;;;;;10.63;4.18;;;;;;;24.33;60.51;100130.41;4307957;33;20159;-87
2023/05/05 09:11:21;;;;;;;5.97;4.18;;;;;;;24.33;60.51;100135.72;4333456;33;20119;-87
2023/05/05 09:13:47;;;;;;;6.90;4.00;;;;;;;24.28;60.52;100132.56;4320189;33;20092;-87
2023/05/05 09:16:12;;;;;;;9.90;3.97;;;;;;;24.25;60.51;100125.69;4319773;33;20181;-87
2023/05/05 09:18:39;;;;;;;6.80;4.00;;;;;;;24.40;60.52;100134.25;4319267;33;20621;-87
2023/05/05 09:21:24;;;;;;;5.53;4.85;;;;;;;24.48;60.52;100131.78;4333274;33;20163;-87
2023/05/05 09:24:06;;;;;;;4.90;3.62;;;;;;;24.12;60.51;100122.34;4319854;33;20191;-87
2023/05/05 09:26:35;;;;;;;9.45;4.12;;;;;;;24.16;60.50;100129.97;4319957;33;20080;-86
2023/05/05 09:29:01;;;;;;;9.43;4.30;;;;;;;24.15;60.50;100125.63;4319886;33;20115;-87
2023/05/05 09:31:27;;;;;;;6.40;4.03;;;;;;;24.15;60.50;100120.28;4319586;33;20135;-87
2023/05/05 09:33:53;;;;;;;7.57;3.78;;;;;;;23.93;60.50;100115.06;4319814;33;20457;-87
2023/05/05 09:36:18;;;;;;;6.95;4.07;;;;;;;24.12;60.51;100115.19;4307267;33;26802;-87
2023/05/05 09:39:02;;;;;;;4.65;3.62;;;;;;;24.15;60.50;100114.97;4319726;33;20143;-87
2023/05/05 09:41:41;;;;;;;9.82;4.70;;;;;;;24.28;60.51;100106.84;4319525;33;20178;-87
2023/05/05 09:44:06;;;;;;;4.90;3.75;;;;;;;24.10;60.50;100105.66;4333000;33;20096;-87
2023/05/05 09:46:32;;;;;;;7.90;3.92;;;;;;;24.10;60.50;100111.84;4319436;33;20095;-87
2023/05/05 09:49:14;;;;;;;8.32;4.12;;;;;;;24.26;60.51;100113.22;4332810;33;20107;-87
2023/05/05 09:51:40;;;;;;;6.93;3.95;;;;;;;24.43;60.52;100105.56;4319185;33;20186;-88
2023/05/05 09:54:05;;;;;;;6.70;3.90;;;;;;;24.48;60.52;100095.38;4319368;33;20438;-87
2023/05/05 09:56:39;;;;;;;4.60;3.42;;;;;;;24.69;60.54;100099.84;4331465;33;20088;-87
2023/05/05 09:59:08;;;;;;;9.48;3.03;;;;;;;24.74;60.54;100093.16;4319452;33;20130;-87
2023/05/05 10:01:33;;;;;;;5.25;3.30;;;;;;;25.07;60.56;100093.91;4319796;33;20104;-87
2023/05/05 10:03:59;;;;;;;5.10;2.85;;;;;;;25.15;60.57;100088.78;4319252;33;20111;-87
2023/05/05 10:06:42;;;;;;;5.45;3.47;;;;;;;25.19;60.56;100098.19;4332295;33;20449;-86
2023/05/05 10:09:07;;;;;;;5.05;3.60;;;;;;;25.26;60.56;100082.50;4306986;33;20132;-86
2023/05/05 10:11:33;;;;;;;5.12;3.05;;;;;;;25.08;60.56;100084.97;4331596;33;20139;-87
2023/05/05 10:13:58;;;;;;;4.72;3.00;;;;;;;25.03;60.55;100076.50;4333510;33;20130;-87
2023/05/05 10:16:24;;;;;;;5.70;3.22;;;;;;;24.96;60.55;100078.84;4333279;33;20447;-87
2023/05/05 10:18:49;;;;;;;5.60;3.90;;;;;;;25.13;60.55;100077.41;4320364;33;35597;-87
2023/05/05 10:21:16;;;;;;;3.62;2.87;;;;;;;25.13;60.57;100082.75;4321016;33;20195;-87
2023/05/05 10:23:48;;;;;;;7.25;3.45;;;;;;;25.29;60.57;100083.06;4321330;33;20484;-87
2023/05/05 10:26:13;;;;;;;6.47;3.80;;;;;;;25.38;60.57;100084.94;4321359;33;20130;-87
2023/05/05 10:28:49;;;;;;;5.68;3.62;;;;;;;25.39;60.57;100075.97;4321166;33;20430;-87
2023/05/05 10:31:40;;;;;;;8.30;4.35;;;;;;;25.34;60.57;100080.03;4321074;33;20149;-87
2023/05/05 10:34:08;;;;;;;9.57;4.12;;;;;;;25.33;60.57;100073.84;4334577;33;20129;-86
2023/05/05 10:36:35;;;;;;;6.30;3.92;;;;;;;25.37;60.56;100063.75;4321059;33;20452;-87
2023/05/05 10:39:00;;;;;;;8.52;4.35;;;;;;;25.35;60.57;100071.03;4321235;33;20103;-87
2023/05/05 10:41:26;;;;;;;5.15;3.55;;;;;;;25.46;60.58;100064.75;4308794;33;20373;-86
2023/05/05 10:43:53;;;;;;;4.68;3.50;;;;;;;25.58;60.58;100061.00;4321215;33;20346;-86
2023/05/05 10:46:18;;;;;;;9.40;3.42;;;;;;;25.87;60.60;100053.91;4333287;33;20204;-86
2023/05/05 10:48:48;;;;;;;5.75;3.25;;;;;;;26.25;60.62;100044.19;4333877;33;30234;-87
2023/05/05 10:51:16;;;;;;;6.37;3.47;;;;;;;26.55;60.64;100038.72;4320956;33;20162;-86
2023/05/05 10:53:46;;;;;;;8.00;3.53;;;;;;;26.99;60.65;100036.38;4334485;33;20265;-87
2023/05/05 10:56:25;;;;;;;8.43;3.83;;;;;;;27.13;60.66;100033.19;4309441;33;20157;-87
2023/05/05 10:58:50;;;;;;;4.57;3.87;;;;;;;27.16;60.66;100029.38;4321751;33;20095;-87
2023/05/05 11:01:30;;;;;;;8.65;3.95;;;;;;;26.81;60.65;100030.91;4334789;33;20122;-87
2023/05/05 11:04:15;;;;;;;;;;;;;;;26.85;60.64;100023.44;4321586;33;20117;-87
2023/05/05 11:06:40;;;;;;;7.95;3.92;;;;;;;26.78;60.64;100027.69;4333410;33;19971;-87
2023/05/05 11:09:27;;;;;;;6.30;3.47;;;;;;;26.64;60.64;100020.97;4333018;33;20175;-86
2023/05/05 11:12:03;;;;;;;5.30;3.28;;;;;;;26.66;60.64;100026.16;4321018;33;20747;-86
2023/05/05 11:14:29;;;;;;;6.35;3.58;;;;;;;26.52;60.63;100019.47;4334336;33;20186;-86
2023/05/05 11:16:55;;;;;;;11.18;4.22;;;;;;;26.72;60.64;100014.91;4334365;33;20131;-86
2023/05/05 11:19:56;;;;;;;8.25;4.07;;;;;;;26.92;60.65;100016.50;4333180;33;20107;-86
2023/05/05 11:22:21;;;;;;;12.23;4.43;;;;;;;27.12;60.66;100006.63;4288392;33;20403;-86
2023/05/05 11:24:47;;;;;;;7.87;4.43;;;;;;;27.15;60.66;100006.31;4313661;33;20164;-87